createdAt,value
2023-04-28T00:00:05.784Z,101497.22
2023-04-28T00:02:34.344Z,101493.69
2023-04-28T00:05:02.221Z,101487.47
2023-04-28T00:07:30.264Z,101483.06
2023-04-28T00:09:58.182Z,101475.06
2023-04-28T00:12:26.101Z,101477.72
2023-04-28T00:14:54.938Z,101480.41
2023-04-28T00:17:24.099Z,101479.56
2023-04-28T00:19:52.991Z,101470.66
2023-04-28T00:22:20.667Z,101463.56
2023-04-28T00:24:48.621Z,101456.47
2023-04-28T00:27:16.793Z,101447.56
2023-04-28T00:29:44.824Z,101454.66
2023-04-28T00:32:13.548Z,101446.69
2023-04-28T00:34:42.851Z,101446.69
2023-04-28T00:37:10.902Z,101429.78
2023-04-28T00:39:38.819Z,101433.38
2023-04-28T00:42:06.627Z,101428.91
2023-04-28T00:44:34.541Z,101424.50
2023-04-28T00:47:03.044Z,101432.50
2023-04-28T00:49:31.550Z,101425.38
2023-04-28T00:52:03.722Z,101409.38
2023-04-28T00:54:31.672Z,101412.06
2023-04-28T00:57:00.171Z,101413.84
2023-04-28T00:59:27.924Z,101407.63
2023-04-28T01:01:56.319Z,101401.47
2023-04-28T01:04:25.065Z,101406.78
2023-04-28T01:06:54.665Z,101402.38
2023-04-28T01:09:23.787Z,101405.03
2023-04-28T01:11:51.580Z,101415.72
2023-04-28T01:14:19.358Z,101395.28
2023-04-28T01:16:47.784Z,101400.59
2023-04-28T01:19:20.962Z,101396.13
2023-04-28T01:21:48.922Z,101391.75
2023-04-28T01:24:19.017Z,101392.66
2023-04-28T01:26:47.190Z,101393.53
2023-04-28T01:29:15.517Z,101391.75
2023-04-28T01:31:43.208Z,101389.13
2023-04-28T01:34:11.004Z,101385.56
2023-04-28T01:36:38.852Z,101388.22
2023-04-28T01:39:07.246Z,101382.00
2023-04-28T01:41:36.658Z,101373.16
2023-04-28T01:44:06.163Z,101368.69
2023-04-28T01:46:33.988Z,101367.81
2023-04-28T01:49:02.019Z,101374.06
2023-04-28T01:51:30.223Z,101372.28
2023-04-28T01:53:58.003Z,101362.47
2023-04-28T01:56:25.979Z,101367.88
2023-04-28T01:58:55.161Z,101363.44
2023-04-28T02:01:22.850Z,101359.00
2023-04-28T02:03:51.193Z,101356.34
2023-04-28T02:06:19.169Z,101356.34
2023-04-28T02:08:46.912Z,101351.00
2023-04-28T02:11:14.652Z,101347.47
2023-04-28T02:13:42.479Z,101343.00
2023-04-28T02:16:11.850Z,101335.94
2023-04-28T02:18:39.760Z,101325.28
2023-04-28T02:21:12.058Z,101324.38
2023-04-28T02:23:40.400Z,101318.16
2023-04-28T02:26:08.325Z,101309.25
2023-04-28T02:28:36.202Z,101301.31
2023-04-28T02:31:09.383Z,101301.31
2023-04-28T02:33:39.321Z,101303.06
2023-04-28T02:36:08.012Z,101288.88
2023-04-28T02:38:36.300Z,101279.06
2023-04-28T02:41:05.758Z,101283.53
2023-04-28T02:43:33.955Z,101277.34
2023-04-28T02:46:02.004Z,101274.69
2023-04-28T02:48:30.116Z,101263.16
2023-04-28T02:50:59.123Z,101273.81
2023-04-28T02:53:26.949Z,101268.47
2023-04-28T02:55:55.437Z,101267.59
2023-04-28T02:58:23.202Z,101272.91
2023-04-28T03:00:51.468Z,101264.06
2023-04-28T03:03:19.350Z,101263.16
2023-04-28T03:05:47.541Z,101261.38
2023-04-28T03:08:16.706Z,101248.09
2023-04-28T03:10:44.442Z,101246.34
2023-04-28T03:13:12.592Z,101241.88
2023-04-28T03:15:40.733Z,101239.19
2023-04-28T03:18:08.554Z,101236.56
2023-04-28T03:20:36.659Z,101239.25
2023-04-28T03:23:04.654Z,101231.28
2023-04-28T03:25:33.939Z,101228.56
2023-04-28T03:28:01.979Z,101227.72
2023-04-28T03:30:29.870Z,101235.72
2023-04-28T03:32:57.766Z,101218.84
2023-04-28T03:35:25.838Z,101229.53
2023-04-28T03:37:53.834Z,101218.00
2023-04-28T03:40:21.986Z,101213.53
2023-04-28T03:42:51.235Z,101201.13
2023-04-28T03:45:19.414Z,101192.25
2023-04-28T03:47:47.552Z,101188.72
2023-04-28T03:50:15.263Z,101186.03
2023-04-28T03:52:43.188Z,101183.38
2023-04-28T03:55:11.626Z,101178.03
2023-04-28T03:57:39.783Z,101174.47
2023-04-28T04:00:10.972Z,101173.63
2023-04-28T04:02:38.840Z,101173.63
2023-04-28T04:05:07.403Z,101173.63
2023-04-28T04:07:35.761Z,101170.09
2023-04-28T04:10:04.820Z,101166.56
2023-04-28T04:12:32.893Z,101171.91
2023-04-28T04:15:00.881Z,101170.09
2023-04-28T04:17:30.526Z,101162.13
2023-04-28T04:19:58.586Z,101156.75
2023-04-28T04:22:26.272Z,101150.56
2023-04-28T04:24:53.918Z,101159.50
2023-04-28T04:27:22.127Z,101160.44
2023-04-28T04:29:49.871Z,101166.59
2023-04-28T04:32:17.841Z,101157.66
2023-04-28T04:34:47.369Z,101151.47
2023-04-28T04:37:15.018Z,101147.97
2023-04-28T04:39:42.711Z,101142.66
2023-04-28T04:42:24.024Z,101142.63
2023-04-28T04:44:52.546Z,101130.19
2023-04-28T04:47:20.789Z,101140.88
2023-04-28T04:49:50.686Z,101124.97
2023-04-28T04:52:18.846Z,101123.22
2023-04-28T04:54:46.931Z,101115.19
2023-04-28T04:57:15.117Z,101118.72
2023-04-28T04:59:42.965Z,101108.06
2023-04-28T05:02:10.994Z,101102.69
2023-04-28T05:04:39.256Z,101110.72
2023-04-28T05:07:09.037Z,101110.78
2023-04-28T05:09:36.932Z,101108.09
2023-04-28T05:12:04.951Z,101117.88
2023-04-28T05:14:32.602Z,101109.03
2023-04-28T05:17:00.744Z,101118.78
2023-04-28T05:19:28.723Z,101115.22
2023-04-28T05:21:56.861Z,101125.94
2023-04-28T05:24:26.515Z,101132.16
2023-04-28T05:26:55.003Z,101134.81
2023-04-28T05:29:22.957Z,101138.34
2023-04-28T05:31:50.993Z,101131.22
2023-04-28T05:34:19.207Z,101126.81
2023-04-28T05:36:48.014Z,101131.31
2023-04-28T05:39:15.848Z,101130.41
2023-04-28T05:41:45.654Z,101132.22
2023-04-28T05:44:13.893Z,101125.97
2023-04-28T05:46:41.843Z,101135.75
2023-04-28T05:49:11.618Z,101134.88
2023-04-28T05:51:39.650Z,101142.03
2023-04-28T05:54:07.949Z,101141.16
2023-04-28T05:56:36.146Z,101147.34
2023-04-28T05:59:05.087Z,101141.13
2023-04-28T06:01:33.643Z,101147.34
2023-04-28T06:04:01.745Z,101146.44
2023-04-28T06:06:29.865Z,101149.13
2023-04-28T06:08:57.953Z,101134.88
2023-04-28T06:11:26.068Z,101127.78
2023-04-28T06:13:54.082Z,101127.78
2023-04-28T06:16:23.515Z,101125.16
2023-04-28T06:18:52.058Z,101116.28
2023-04-28T06:21:21.650Z,101110.03
2023-04-28T06:23:49.673Z,101116.28
2023-04-28T06:26:18.538Z,101124.28
2023-04-28T06:28:46.859Z,101123.41
2023-04-28T06:31:14.586Z,101123.41
2023-04-28T06:33:44.179Z,101114.50
2023-04-28T06:36:14.248Z,101120.69
2023-04-28T06:38:42.914Z,101106.50
2023-04-28T06:41:11.501Z,101108.28
2023-04-28T06:43:39.640Z,101105.66
2023-04-28T06:46:08.110Z,101100.31
2023-04-28T06:48:36.179Z,101099.47
2023-04-28T06:51:05.810Z,101101.19
2023-04-28T06:53:33.815Z,101099.47
2023-04-28T06:56:02.998Z,101092.38
2023-04-28T06:58:31.010Z,101079.91
2023-04-28T07:00:59.051Z,101069.28
2023-04-28T07:03:30.594Z,101057.72
2023-04-28T07:05:59.272Z,101053.28
2023-04-28T07:08:30.675Z,101047.00
2023-04-28T07:10:58.765Z,101045.19
2023-04-28T07:13:26.678Z,101045.19
2023-04-28T07:15:54.556Z,101047.81
2023-04-28T07:18:22.698Z,101046.91
2023-04-28T07:20:50.677Z,101044.22
2023-04-28T07:23:18.658Z,101045.09
2023-04-28T07:25:47.902Z,101045.97
2023-04-28T07:28:15.767Z,101042.41
2023-04-28T07:30:43.434Z,101027.31
2023-04-28T07:33:11.361Z,101025.50
2023-04-28T07:35:39.748Z,101026.41
2023-04-28T07:38:07.953Z,101043.28
2023-04-28T07:40:35.710Z,101042.34
2023-04-28T07:43:05.191Z,101043.28
2023-04-28T07:45:32.981Z,101044.16
2023-04-28T07:48:01.263Z,101037.88
2023-04-28T07:50:29.209Z,101041.44
2023-04-28T07:52:57.894Z,101034.31
2023-04-28T07:55:26.075Z,101045.88
2023-04-28T07:57:54.679Z,101045.88
2023-04-28T08:00:23.992Z,101048.56
2023-04-28T08:02:52.139Z,101042.31
2023-04-28T08:05:20.562Z,101035.22
2023-04-28T08:07:48.903Z,101029.88
2023-04-28T08:10:16.823Z,101036.16
2023-04-28T08:12:45.256Z,101033.50
2023-04-28T08:15:14.158Z,101037.88
2023-04-28T08:17:43.930Z,101033.50
2023-04-28T08:20:15.404Z,101033.50
2023-04-28T08:22:43.823Z,101029.88
2023-04-28T08:25:11.826Z,101022.84
2023-04-28T08:27:40.156Z,101014.84
2023-04-28T08:30:09.347Z,101015.75
2023-04-28T08:32:37.344Z,101016.59
2023-04-28T08:35:08.030Z,101013.06
2023-04-28T08:37:35.815Z,101022.84
2023-04-28T08:40:09.618Z,101017.50
2023-04-28T08:42:38.319Z,101021.06
2023-04-28T08:45:06.833Z,101013.06
2023-04-28T08:47:36.882Z,101012.16
2023-04-28T08:50:08.516Z,101006.84
2023-04-28T08:52:37.075Z,101013.03
2023-04-28T08:55:08.098Z,101004.16
2023-04-28T08:57:41.328Z,101001.50
2023-04-28T09:00:10.253Z,101002.31
2023-04-28T09:02:38.564Z,101004.97
2023-04-28T09:05:10.638Z,100995.22
2023-04-28T09:07:38.921Z,100994.31
2023-04-28T09:10:18.235Z,100993.41
2023-04-28T09:12:46.724Z,100997.88
2023-04-28T09:15:29.797Z,100992.53
2023-04-28T09:17:58.978Z,100995.22
2023-04-28T09:20:29.908Z,101004.97
2023-04-28T09:23:13.117Z,100998.78
2023-04-28T09:25:40.978Z,101000.56
2023-04-28T09:28:21.573Z,100992.56
2023-04-28T09:30:49.695Z,100999.75
2023-04-28T09:33:17.776Z,100997.91
2023-04-28T09:35:48.535Z,100991.69
2023-04-28T09:38:16.834Z,100991.69
2023-04-28T09:40:56.708Z,100988.16
2023-04-28T09:43:29.037Z,100990.84
2023-04-28T09:45:58.054Z,100993.50
2023-04-28T09:48:34.105Z,100988.16
2023-04-28T09:51:04.382Z,100980.16
2023-04-28T09:53:33.180Z,100984.66
2023-04-28T09:56:02.147Z,100983.75
2023-04-28T09:58:32.346Z,100987.28
2023-04-28T10:01:02.192Z,100977.53
2023-04-28T10:03:31.898Z,100976.66
2023-04-28T10:06:00.856Z,100974.84
2023-04-28T10:08:30.983Z,100973.09
2023-04-28T10:10:59.644Z,100973.09
2023-04-28T10:13:27.815Z,100978.41
2023-04-28T10:15:58.213Z,100965.09
2023-04-28T10:18:27.158Z,100967.75
2023-04-28T10:20:58.847Z,100973.09
2023-04-28T10:23:50.224Z,100973.03
2023-04-28T10:26:20.787Z,100971.22
2023-04-28T10:28:49.852Z,100972.03
2023-04-28T10:31:21.074Z,100972.81
2023-04-28T10:33:49.988Z,100971.00
2023-04-28T10:36:49.138Z,100975.34
2023-04-28T10:39:18.477Z,100970.75
2023-04-28T10:41:47.578Z,100971.44
2023-04-28T10:44:43.956Z,100970.22
2023-04-28T10:47:12.793Z,100963.75
2023-04-28T10:50:12.342Z,100961.69
2023-04-28T10:52:52.739Z,100964.06
2023-04-28T10:55:36.636Z,100962.88
2023-04-28T10:58:33.725Z,100960.81
2023-04-28T11:01:29.869Z,100955.13
2023-04-28T11:04:04.153Z,100958.34
2023-04-28T11:06:34.880Z,100955.34
2023-04-28T11:09:04.218Z,100954.13
2023-04-28T11:11:35.181Z,100948.50
2023-04-28T11:14:40.805Z,100941.91
2023-04-28T11:17:11.273Z,100946.97
2023-04-28T11:19:41.772Z,100938.63
2023-04-28T11:22:16.217Z,100938.56
2023-04-28T11:24:57.225Z,100930.53
2023-04-28T11:27:27.890Z,100932.94
2023-04-28T11:29:55.636Z,100934.41
2023-04-28T11:32:28.585Z,100931.34
2023-04-28T11:34:56.495Z,100933.88
2023-04-28T11:37:24.218Z,100936.56
2023-04-28T11:39:52.572Z,100946.97
2023-04-28T11:42:20.399Z,100932.41
2023-04-28T11:44:53.826Z,100928.56
2023-04-28T11:47:33.072Z,100930.94
2023-04-28T11:50:01.553Z,100935.97
2023-04-28T11:52:29.394Z,100937.56
2023-04-28T11:55:00.185Z,100939.94
2023-04-28T11:57:28.259Z,100933.47
2023-04-28T12:00:14.274Z,100936.75
2023-04-28T12:02:42.167Z,100930.41
2023-04-28T12:05:11.529Z,100933.91
2023-04-28T12:07:43.854Z,100932.97
2023-04-28T12:10:13.762Z,100922.25
2023-04-28T12:12:50.831Z,100926.72
2023-04-28T12:15:23.570Z,100930.28
2023-04-28T12:17:52.197Z,100925.78
2023-04-28T12:20:37.127Z,100929.31
2023-04-28T12:23:05.888Z,100931.91
2023-04-28T12:25:36.102Z,100926.53
2023-04-28T12:28:05.812Z,100928.28
2023-04-28T12:30:38.965Z,100932.72
2023-04-28T12:33:07.415Z,100940.75
2023-04-28T12:35:35.102Z,100936.25
2023-04-28T12:38:02.833Z,100937.16
2023-04-28T12:40:30.677Z,100934.47
2023-04-28T12:42:58.278Z,100941.59
2023-04-28T12:45:26.226Z,100941.50
2023-04-28T12:47:57.243Z,100939.69
2023-04-28T12:50:25.952Z,100939.69
2023-04-28T12:52:53.667Z,100944.06
2023-04-28T12:55:21.599Z,100935.94
2023-04-28T12:57:49.554Z,100939.44
2023-04-28T13:00:18.144Z,100933.09
2023-04-28T13:02:46.409Z,100943.69
2023-04-28T13:05:15.805Z,100940.06
2023-04-28T13:07:44.039Z,100946.16
2023-04-28T13:10:13.746Z,100949.75
2023-04-28T13:12:42.830Z,100950.56
2023-04-28T13:15:12.076Z,100950.41
2023-04-28T13:17:40.020Z,100950.41
2023-04-28T13:20:09.611Z,100953.00
2023-04-28T13:22:38.663Z,100954.75
2023-04-28T13:25:07.304Z,100956.44
2023-04-28T13:27:37.461Z,100957.28
2023-04-28T13:30:06.584Z,100966.16
2023-04-28T13:32:34.448Z,100965.22
2023-04-28T13:35:02.575Z,100960.72
2023-04-28T13:37:30.499Z,100960.69
2023-04-28T13:39:59.590Z,100960.59
2023-04-28T13:42:27.649Z,100971.25
2023-04-28T13:44:56.335Z,100959.59
2023-04-28T13:47:24.846Z,100963.13
2023-04-28T13:49:52.934Z,100963.09
2023-04-28T13:52:22.401Z,100971.06
2023-04-28T13:54:50.707Z,100967.53
2023-04-28T13:57:20.088Z,100971.00
2023-04-28T13:59:48.635Z,100971.00
2023-04-28T14:02:16.310Z,100971.91
2023-04-28T14:04:48.711Z,100969.13
2023-04-28T14:07:16.951Z,100980.75
2023-04-28T14:09:44.710Z,100973.50
2023-04-28T14:12:13.870Z,100976.16
2023-04-28T14:14:43.660Z,100977.00
2023-04-28T14:17:12.552Z,100983.22
2023-04-28T14:19:40.475Z,100980.53
2023-04-28T14:22:08.293Z,100977.25
2023-04-28T14:24:36.941Z,100979.03
2023-04-28T14:27:04.988Z,100981.63
2023-04-28T14:29:33.088Z,100984.22
2023-04-28T14:32:02.245Z,100979.69
2023-04-28T14:34:30.270Z,100988.59
2023-04-28T14:36:58.186Z,100993.00
2023-04-28T14:39:26.086Z,100993.84
2023-04-28T14:41:53.849Z,100991.22
2023-04-28T14:44:21.790Z,100980.44
2023-04-28T14:46:49.703Z,100987.41
2023-04-28T14:49:19.194Z,100996.34
2023-04-28T14:51:47.875Z,100993.59
2023-04-28T14:54:16.365Z,101002.56
2023-04-28T14:56:44.330Z,101001.69
2023-04-28T14:59:12.009Z,101000.81
2023-04-28T15:01:39.822Z,100997.19
2023-04-28T15:04:07.681Z,100998.00
2023-04-28T15:06:37.295Z,100994.31
2023-04-28T15:09:05.513Z,100999.69
2023-04-28T15:11:33.136Z,101001.44
2023-04-28T15:14:01.258Z,100998.84
2023-04-28T15:16:29.196Z,101008.31
2023-04-28T15:18:57.425Z,101002.56
2023-04-28T15:21:25.759Z,101016.41
2023-04-28T15:23:54.806Z,101000.81
2023-04-28T15:26:23.591Z,101004.13
2023-04-28T15:28:51.324Z,101002.19
2023-04-28T15:31:19.084Z,101009.31
2023-04-28T15:33:47.523Z,101016.41
2023-04-28T15:36:15.567Z,101012.91
2023-04-28T15:38:45.243Z,101020.03
2023-04-28T15:41:15.277Z,101015.59
2023-04-28T15:43:43.705Z,101023.66
2023-04-28T15:46:11.914Z,101020.97
2023-04-28T15:48:39.881Z,101020.03
2023-04-28T15:51:08.455Z,101024.47
2023-04-28T15:53:36.240Z,101028.91
2023-04-28T15:56:05.086Z,101035.13
2023-04-28T15:58:34.265Z,101036.00
2023-04-28T16:01:03.488Z,101029.66
2023-04-28T16:03:31.770Z,101042.97
2023-04-28T16:06:01.289Z,101041.16
2023-04-28T16:08:29.347Z,101047.50
2023-04-28T16:10:57.277Z,101048.34
2023-04-28T16:13:25.053Z,101048.34
2023-04-28T16:15:54.296Z,101059.06
2023-04-28T16:18:23.023Z,101047.50
2023-04-28T16:20:51.676Z,101056.47
2023-04-28T16:23:20.664Z,101063.50
2023-04-28T16:25:50.741Z,101066.19
2023-04-28T16:28:19.038Z,101077.78
2023-04-28T16:30:48.016Z,101074.25
2023-04-28T16:33:17.532Z,101083.22
2023-04-28T16:35:45.592Z,101084.06
2023-04-28T16:38:13.459Z,101089.44
2023-04-28T16:40:41.390Z,101096.63
2023-04-28T16:43:09.761Z,101091.16
2023-04-28T16:45:37.764Z,101094.63
2023-04-28T16:48:06.509Z,101095.50
2023-04-28T16:50:36.165Z,101095.44
2023-04-28T16:53:04.732Z,101100.75
2023-04-28T16:55:32.956Z,101098.06
2023-04-28T16:58:00.810Z,101093.66
2023-04-28T17:00:28.435Z,101105.25
2023-04-28T17:02:56.266Z,101098.13
2023-04-28T17:05:24.316Z,101098.19
2023-04-28T17:07:55.149Z,101107.09
2023-04-28T17:10:22.967Z,101119.59
2023-04-28T17:12:50.758Z,101111.53
2023-04-28T17:15:19.154Z,101110.59
2023-04-28T17:17:50.792Z,101115.97
2023-04-28T17:20:20.033Z,101114.22
2023-04-28T17:22:50.063Z,101114.22
2023-04-28T17:25:19.799Z,101118.66
2023-04-28T17:27:47.515Z,101118.66
2023-04-28T17:30:15.850Z,101114.22
2023-04-28T17:32:43.967Z,101120.47
2023-04-28T17:35:11.983Z,101124.88
2023-04-28T17:37:39.955Z,101124.88
2023-04-28T17:40:09.795Z,101129.38
2023-04-28T17:42:39.665Z,101134.75
2023-04-28T17:45:08.612Z,101140.13
2023-04-28T17:47:36.353Z,101140.13
2023-04-28T17:50:06.652Z,101140.13
2023-04-28T17:52:34.799Z,101141.97
2023-04-28T17:55:03.278Z,101151.78
2023-04-28T17:57:32.087Z,101148.28
2023-04-28T18:00:01.718Z,101151.88
2023-04-28T18:02:29.734Z,101152.88
2023-04-28T18:04:57.992Z,101164.44
2023-04-28T18:07:26.823Z,101164.44
2023-04-28T18:09:57.434Z,101163.44
2023-04-28T18:12:26.389Z,101178.53
2023-04-28T18:14:54.884Z,101175.84
2023-04-28T18:17:26.126Z,101176.75
2023-04-28T18:19:56.660Z,101177.66
2023-04-28T18:22:24.979Z,101188.34
2023-04-28T18:24:52.871Z,101182.09
2023-04-28T18:27:20.778Z,101187.47
2023-04-28T18:29:49.024Z,101189.22
2023-04-28T18:32:16.890Z,101194.59
2023-04-28T18:34:47.384Z,101190.97
2023-04-28T18:37:15.138Z,101202.56
2023-04-28T18:39:43.074Z,101200.81
2023-04-28T18:42:10.956Z,101208.78
2023-04-28T18:44:38.803Z,101199.88
2023-04-28T18:47:06.800Z,101203.44
2023-04-28T18:49:34.929Z,101209.69
2023-04-28T18:52:04.085Z,101211.44
2023-04-28T18:54:32.909Z,101212.31
2023-04-28T18:57:00.779Z,101217.66
2023-04-28T18:59:29.028Z,101218.56
2023-04-28T19:01:57.012Z,101224.78
2023-04-28T19:04:24.997Z,101232.84
2023-04-28T19:06:52.865Z,101239.06
2023-04-28T19:09:22.070Z,101236.38
2023-04-28T19:11:49.891Z,101239.06
2023-04-28T19:14:17.809Z,101244.44
2023-04-28T19:16:45.879Z,101253.38
2023-04-28T19:19:13.810Z,101255.16
2023-04-28T19:21:43.263Z,101260.44
2023-04-28T19:24:12.857Z,101258.97
2023-04-28T19:26:42.217Z,101267.94
2023-04-28T19:29:11.761Z,101275.88
2023-04-28T19:31:39.631Z,101274.94
2023-04-28T19:34:07.293Z,101285.66
2023-04-28T19:36:35.003Z,101282.97
2023-04-28T19:39:03.016Z,101292.78
2023-04-28T19:41:30.904Z,101293.69
2023-04-28T19:44:00.081Z,101303.50
2023-04-28T19:46:28.065Z,101304.44
2023-04-28T19:48:56.184Z,101304.41
2023-04-28T19:51:24.086Z,101306.13
2023-04-28T19:53:52.735Z,101312.38
2023-04-28T19:56:20.679Z,101317.75
2023-04-28T19:58:48.716Z,101317.75
2023-04-28T20:01:17.928Z,101318.63
2023-04-28T20:03:45.936Z,101328.50
2023-04-28T20:06:17.430Z,101330.25
2023-04-28T20:08:46.045Z,101332.97
2023-04-28T20:11:14.137Z,101335.63
2023-04-28T20:13:42.075Z,101332.03
2023-04-28T20:16:09.747Z,101347.28
2023-04-28T20:18:38.809Z,101344.59
2023-04-28T20:21:06.857Z,101355.31
2023-04-28T20:23:34.863Z,101349.06
2023-04-28T20:26:02.832Z,101349.13
2023-04-28T20:28:30.709Z,101346.44
2023-04-28T20:30:58.524Z,101357.19
2023-04-28T20:33:26.221Z,101353.56
2023-04-28T20:35:55.962Z,101359.00
2023-04-28T20:38:23.859Z,101367.91
2023-04-28T20:40:52.359Z,101367.91
2023-04-28T20:43:20.148Z,101370.66
2023-04-28T20:45:48.430Z,101375.94
2023-04-28T20:48:16.301Z,101378.63
2023-04-28T20:50:45.169Z,101392.06
2023-04-28T20:53:14.595Z,101388.50
2023-04-28T20:55:42.233Z,101396.56
2023-04-28T20:58:10.171Z,101394.72
2023-04-28T21:00:40.420Z,101400.09
2023-04-28T21:03:08.432Z,101400.16
2023-04-28T21:05:36.357Z,101403.72
2023-04-28T21:08:04.331Z,101397.47
2023-04-28T21:10:34.030Z,101409.91
2023-04-28T21:13:01.785Z,101410.81
2023-04-28T21:15:29.468Z,101420.69
2023-04-28T21:17:57.595Z,101425.16
2023-04-28T21:20:25.733Z,101424.31
2023-04-28T21:22:53.864Z,101427.84
2023-04-28T21:25:21.808Z,101432.28
2023-04-28T21:27:53.083Z,101433.19
2023-04-28T21:30:20.997Z,101437.66
2023-04-28T21:32:48.913Z,101429.63
2023-04-28T21:35:17.782Z,101443.91
2023-04-28T21:37:46.352Z,101451.06
2023-04-28T21:40:14.438Z,101450.22
2023-04-28T21:42:42.253Z,101445.78
2023-04-28T21:45:12.401Z,101454.69
2023-04-28T21:47:43.325Z,101445.72
2023-04-28T21:50:12.032Z,101442.03
2023-04-28T21:52:39.629Z,101452.25
2023-04-28T21:55:08.830Z,101445.34
2023-04-28T21:57:37.424Z,101444.41
2023-04-28T22:00:10.604Z,101445.31
2023-04-28T22:02:41.282Z,101453.47
2023-04-28T22:05:10.710Z,101458.22
2023-04-28T22:07:39.280Z,101454.91
2023-04-28T22:10:09.282Z,101459.63
2023-04-28T22:12:37.072Z,101453.56
2023-04-28T22:15:05.292Z,101456.44
2023-04-28T22:17:33.159Z,101461.09
2023-04-28T22:20:02.192Z,101458.63
2023-04-28T22:22:30.942Z,101454.41
2023-04-28T22:24:58.588Z,101466.22
2023-04-28T22:27:26.211Z,101465.47
2023-04-28T22:29:53.962Z,101468.34
2023-04-28T22:32:21.877Z,101477.44
2023-04-28T22:34:49.510Z,101474.91
2023-04-28T22:37:18.505Z,101476.84
2023-04-28T22:39:46.160Z,101485.03
2023-04-28T22:42:13.781Z,101478.91
2023-04-28T22:44:41.395Z,101486.19
2023-04-28T22:47:09.081Z,101488.06
2023-04-28T22:49:36.732Z,101488.16
2023-04-28T22:52:04.756Z,101490.97
2023-04-28T22:54:33.702Z,101486.59
2023-04-28T22:57:03.828Z,101487.63
2023-04-28T22:59:31.530Z,101486.78
2023-04-28T23:01:59.260Z,101486.00
2023-04-28T23:04:27.115Z,101490.56
2023-04-28T23:06:54.965Z,101492.41
2023-04-28T23:09:22.652Z,101500.50
2023-04-28T23:11:51.668Z,101497.00
2023-04-28T23:14:19.393Z,101498.91
2023-04-28T23:16:46.991Z,101498.06
2023-04-28T23:19:14.691Z,101512.41
2023-04-28T23:21:42.371Z,101509.75
2023-04-28T23:24:10.817Z,101507.13
2023-04-28T23:26:38.455Z,101517.00
2023-04-28T23:29:08.952Z,101510.84
2023-04-28T23:31:39.660Z,101516.28
2023-04-28T23:34:07.855Z,101523.47
2023-04-28T23:36:35.725Z,101525.34
2023-04-28T23:39:03.436Z,101532.53
2023-04-28T23:41:31.124Z,101529.91
2023-04-28T23:43:58.793Z,101532.59
2023-04-28T23:46:28.916Z,101525.53
2023-04-28T23:48:57.197Z,101530.94
2023-04-28T23:51:25.081Z,101527.41
2023-04-28T23:53:53.338Z,101529.22
2023-04-28T23:56:20.932Z,101541.72
2023-04-28T23:58:48.527Z,101539.16
